Joy M — 3FPS5 — position and weather

sailwx.info

Track history (hours):
 
Tides and Currents Weather Stations Pressure Air Temp Water Temp Dewpoint Dewpoint Depression Visibility Wind Speed Wind Dir Waves Ship Positions

Joy M

Last reported at 2017-Sep-21 07:09 UTC. Time now 2017-Sep-25 09:49 UTC.
Position N 42°43' E 031°58'.

Length 144 m; draft 8 m.

Type: Cargo ship. MMSI: 353312000.

Date/timePositionNaut miles runAvg speedWind from/ knotsBaromVisibWave heightAir tempDewpointWater temp
2017-Sep-21 07:09N 42°43' E 031°58'80 8.9
2017-Sep-20 22:08N 43°28' E 033°29'1 9.2
2017-Sep-20 22:00N 43°29' E 033°30'11 9.2
2017-Sep-20 20:48N 43°35' E 033°43'3 9.2
2017-Sep-20 20:29N 43°36' E 033°47'5 9.3
2017-Sep-20 19:55N 43°39' E 033°53'4 9.3
2017-Sep-20 19:30N 43°41' E 033°57'8 9.4
2017-Sep-20 18:41N 43°45' E 034°07'37 9.6
2017-Sep-20 14:46N 44°04' E 034°51'7 9.4
2017-Sep-20 13:59N 44°08' E 035°00'6 9.3
2017-Sep-20 13:20N 44°12' E 035°07'59 9.2
2017-Sep-20 06:57N 44°44' E 036°17'4 9.5
2017-Sep-20 06:29N 44°46' E 036°22'5 9.1
2017-Sep-20 05:59N 44°48' E 036°28'14 9.0
2017-Sep-20 04:22N 45°02' E 036°30'5 8.9
2017-Sep-20 03:49N 45°07' E 036°30'3 8.7
2017-Sep-20 03:29N 45°10' E 036°28'8 7.7
2017-Sep-20 02:25N 45°18' E 036°29'4 9.2
2017-Sep-20 02:00N 45°20' E 036°34'4 8.8
2017-Sep-20 01:30N 45°22' E 036°40'4 7.8
2017-Sep-20 01:00N 45°26' E 036°41'3 6.2
2017-Sep-20 00:30N 45°29' E 036°39'1 0.9
2017-Sep-19 22:55N 45°29' E 036°38'0 0.0
2017-Sep-19 22:25N 45°29' E 036°38'0 0.0
2017-Sep-19 21:58N 45°29' E 036°38'0 0.0
2017-Sep-19 20:19N 45°29' E 036°38'0 0.2
2017-Sep-19 19:58N 45°29' E 036°38'0 0.2
2017-Sep-19 19:28N 45°29' E 036°38'2 5.1
2017-Sep-19 19:01N 45°31' E 036°39'5 8.8
2017-Sep-19 18:24N 45°37' E 036°40'  
2017-Sep-17 09:45N 45°51' E 036°44'3 9.1
2017-Sep-17 09:24N 45°49' E 036°41'5 0.3
2017-Sep-16 15:26N 45°44' E 036°38'4 9.1
2017-Sep-16 15:00N 45°43' E 036°43'6 8.3
2017-Sep-16 14:15N 45°36' E 036°45'2 9.5
2017-Sep-16 14:00N 45°34' E 036°44'5 9.4
2017-Sep-16 13:30N 45°30' E 036°43'5 9.0
2017-Sep-16 13:00N 45°25' E 036°41'4 8.5
2017-Sep-16 12:30N 45°21' E 036°39'4 8.0
2017-Sep-16 12:00N 45°20' E 036°34'4 8.4
2017-Sep-16 11:30N 45°18' E 036°29'4 7.4
2017-Sep-16 11:00N 45°14' E 036°28'3 5.5
2017-Sep-16 10:30N 45°11' E 036°28'0 0.8
2017-Sep-16 09:59N 45°11' E 036°29'0 0.0
2017-Sep-16 09:29N 45°11' E 036°29'0 0.0
2017-Sep-16 08:59N 45°11' E 036°29'0 0.0
2017-Sep-16 08:29N 45°11' E 036°29'0 0.0
2017-Sep-16 07:59N 45°11' E 036°29'0 0.0
2017-Sep-16 07:23N 45°11' E 036°29'0 0.1
2017-Sep-16 06:59N 45°11' E 036°29'0 0.0
2017-Sep-16 06:29N 45°11' E 036°29'0 0.0
2017-Sep-16 05:59N 45°11' E 036°29'1 1.1
2017-Sep-16 05:30N 45°11' E 036°29'3 5.9
2017-Sep-16 05:00N 45°08' E 036°30'13 8.6
2017-Sep-16 03:31N 44°55' E 036°31'0 8.4
2017-Sep-16 03:30N 44°55' E 036°32'94 8.2
2017-Sep-15 16:02N 44°05' E 034°39'0 9.0
2017-Sep-15 16:00N 44°05' E 034°39'4 8.9
2017-Sep-15 15:30N 44°02' E 034°34'4 9.0
2017-Sep-15 15:00N 44°00' E 034°28'4 8.9
2017-Sep-15 14:30N 43°58' E 034°23'4 8.7
2017-Sep-15 14:00N 43°56' E 034°18'4 8.8
2017-Sep-15 13:30N 43°54' E 034°12'4 8.9
2017-Sep-15 13:00N 43°52' E 034°07'5 9.0
2017-Sep-15 12:30N 43°49' E 034°02'4 8.9
2017-Sep-15 12:00N 43°48' E 033°56'28 8.9
2017-Sep-15 08:51N 43°42' E 033°18'3 9.1
2017-Sep-15 08:30N 43°41' E 033°13'6 8.9
2017-Sep-15 07:48N 43°40' E 033°05'3 8.9
2017-Sep-15 07:30N 43°39' E 033°02'4 8.8
2017-Sep-15 07:00N 43°38' E 032°55'5 8.9
2017-Sep-15 06:26N 43°37' E 032°49'4 8.9
2017-Sep-15 05:59N 43°35' E 032°44'44 9.4
2017-Sep-15 01:16N 43°23' E 031°45'4 9.6
2017-Sep-15 00:51N 43°22' E 031°40'3 9.6
2017-Sep-15 00:30N 43°21' E 031°36'5 9.6
2017-Sep-15 00:00N 43°19' E 031°29'5 9.5
2017-Sep-14 23:30N 43°18' E 031°23'5 9.5
2017-Sep-14 23:00N 43°17' E 031°17'5 9.6
2017-Sep-14 22:30N 43°15' E 031°11'5 9.7
2017-Sep-14 22:00N 43°14' E 031°04'6 9.6
2017-Sep-14 21:22N 43°12' E 030°56'4 9.6
2017-Sep-14 20:58N 43°11' E 030°51'4 9.6
2017-Sep-14 20:30N 43°09' E 030°45'5 9.7
2017-Sep-14 20:00N 43°08' E 030°39'5 9.7
2017-Sep-14 19:30N 43°06' E 030°33'5 9.7
2017-Sep-14 19:00N 43°05' E 030°26'5 9.8
2017-Sep-14 18:30N 43°03' E 030°20'5 9.8
2017-Sep-14 18:00N 43°02' E 030°14'5 9.8
2017-Sep-14 17:30N 43°00' E 030°07'5 9.7
2017-Sep-14 17:00N 42°59' E 030°01'5 9.7
2017-Sep-14 16:30N 42°57' E 029°55'5 9.6
2017-Sep-14 16:00N 42°56' E 029°49'5 9.5
2017-Sep-14 15:30N 42°54' E 029°43'5 9.4
2017-Sep-14 15:00N 42°53' E 029°36'5 9.3
2017-Sep-14 14:30N 42°51' E 029°31'5 9.3
2017-Sep-14 14:00N 42°50' E 029°24'5 9.3
2017-Sep-14 13:30N 42°48' E 029°19'5 9.2
2017-Sep-14 13:00N 42°46' E 029°13'5 9.3
2017-Sep-14 12:30N 42°45' E 029°07'5 9.3
2017-Sep-14 11:58N 42°43' E 029°00'  
Track history (hours):
 
Tides and Currents Weather Stations Pressure Air Temp Water Temp Dewpoint Dewpoint Depression Visibility Wind Speed Wind Dir Waves Ship Positions

Joy M

Last reported at 2017-Sep-21 07:09 UTC. Time now 2017-Sep-25 09:49 UTC.
Position N 42°43' E 031°58'.

Length 144 m; draft 8 m.

Type: Cargo ship. MMSI: 353312000.

Date/timePositionNaut miles runAvg speedWind from/ knotsBaromVisibWave heightAir tempDewpointWater temp
2017-Sep-21 07:09N 42°43' E 031°58'80 8.9
2017-Sep-20 22:08N 43°28' E 033°29'1 9.2
2017-Sep-20 22:00N 43°29' E 033°30'11 9.2
2017-Sep-20 20:48N 43°35' E 033°43'3 9.2
2017-Sep-20 20:29N 43°36' E 033°47'5 9.3
2017-Sep-20 19:55N 43°39' E 033°53'4 9.3
2017-Sep-20 19:30N 43°41' E 033°57'8 9.4
2017-Sep-20 18:41N 43°45' E 034°07'37 9.6
2017-Sep-20 14:46N 44°04' E 034°51'7 9.4
2017-Sep-20 13:59N 44°08' E 035°00'6 9.3
2017-Sep-20 13:20N 44°12' E 035°07'59 9.2
2017-Sep-20 06:57N 44°44' E 036°17'4 9.5
2017-Sep-20 06:29N 44°46' E 036°22'5 9.1
2017-Sep-20 05:59N 44°48' E 036°28'14 9.0
2017-Sep-20 04:22N 45°02' E 036°30'5 8.9
2017-Sep-20 03:49N 45°07' E 036°30'3 8.7
2017-Sep-20 03:29N 45°10' E 036°28'8 7.7
2017-Sep-20 02:25N 45°18' E 036°29'4 9.2
2017-Sep-20 02:00N 45°20' E 036°34'4 8.8
2017-Sep-20 01:30N 45°22' E 036°40'4 7.8
2017-Sep-20 01:00N 45°26' E 036°41'3 6.2
2017-Sep-20 00:30N 45°29' E 036°39'1 0.9
2017-Sep-19 22:55N 45°29' E 036°38'0 0.0
2017-Sep-19 22:25N 45°29' E 036°38'0 0.0
2017-Sep-19 21:58N 45°29' E 036°38'0 0.0
2017-Sep-19 20:19N 45°29' E 036°38'0 0.2
2017-Sep-19 19:58N 45°29' E 036°38'0 0.2
2017-Sep-19 19:28N 45°29' E 036°38'2 5.1
2017-Sep-19 19:01N 45°31' E 036°39'5 8.8
2017-Sep-19 18:24N 45°37' E 036°40'  
2017-Sep-17 09:45N 45°51' E 036°44'3 9.1
2017-Sep-17 09:24N 45°49' E 036°41'5 0.3
2017-Sep-16 15:26N 45°44' E 036°38'4 9.1
2017-Sep-16 15:00N 45°43' E 036°43'6 8.3
2017-Sep-16 14:15N 45°36' E 036°45'2 9.5
2017-Sep-16 14:00N 45°34' E 036°44'5 9.4
2017-Sep-16 13:30N 45°30' E 036°43'5 9.0
2017-Sep-16 13:00N 45°25' E 036°41'4 8.5
2017-Sep-16 12:30N 45°21' E 036°39'4 8.0
2017-Sep-16 12:00N 45°20' E 036°34'4 8.4
2017-Sep-16 11:30N 45°18' E 036°29'4 7.4
2017-Sep-16 11:00N 45°14' E 036°28'3 5.5
2017-Sep-16 10:30N 45°11' E 036°28'0 0.8
2017-Sep-16 09:59N 45°11' E 036°29'0 0.0
2017-Sep-16 09:29N 45°11' E 036°29'0 0.0
2017-Sep-16 08:59N 45°11' E 036°29'0 0.0
2017-Sep-16 08:29N 45°11' E 036°29'0 0.0
2017-Sep-16 07:59N 45°11' E 036°29'0 0.0
2017-Sep-16 07:23N 45°11' E 036°29'0 0.1
2017-Sep-16 06:59N 45°11' E 036°29'0 0.0
2017-Sep-16 06:29N 45°11' E 036°29'0 0.0
2017-Sep-16 05:59N 45°11' E 036°29'1 1.1
2017-Sep-16 05:30N 45°11' E 036°29'3 5.9
2017-Sep-16 05:00N 45°08' E 036°30'13 8.6
2017-Sep-16 03:31N 44°55' E 036°31'0 8.4
2017-Sep-16 03:30N 44°55' E 036°32'94 8.2
2017-Sep-15 16:02N 44°05' E 034°39'0 9.0
2017-Sep-15 16:00N 44°05' E 034°39'4 8.9
2017-Sep-15 15:30N 44°02' E 034°34'4 9.0
2017-Sep-15 15:00N 44°00' E 034°28'4 8.9
2017-Sep-15 14:30N 43°58' E 034°23'4 8.7
2017-Sep-15 14:00N 43°56' E 034°18'4 8.8
2017-Sep-15 13:30N 43°54' E 034°12'4 8.9
2017-Sep-15 13:00N 43°52' E 034°07'5 9.0
2017-Sep-15 12:30N 43°49' E 034°02'4 8.9
2017-Sep-15 12:00N 43°48' E 033°56'28 8.9
2017-Sep-15 08:51N 43°42' E 033°18'3 9.1
2017-Sep-15 08:30N 43°41' E 033°13'6 8.9
2017-Sep-15 07:48N 43°40' E 033°05'3 8.9
2017-Sep-15 07:30N 43°39' E 033°02'4 8.8
2017-Sep-15 07:00N 43°38' E 032°55'5 8.9
2017-Sep-15 06:26N 43°37' E 032°49'4 8.9
2017-Sep-15 05:59N 43°35' E 032°44'44 9.4
2017-Sep-15 01:16N 43°23' E 031°45'4 9.6
2017-Sep-15 00:51N 43°22' E 031°40'3 9.6
2017-Sep-15 00:30N 43°21' E 031°36'5 9.6
2017-Sep-15 00:00N 43°19' E 031°29'5 9.5
2017-Sep-14 23:30N 43°18' E 031°23'5 9.5
2017-Sep-14 23:00N 43°17' E 031°17'5 9.6
2017-Sep-14 22:30N 43°15' E 031°11'5 9.7
2017-Sep-14 22:00N 43°14' E 031°04'6 9.6
2017-Sep-14 21:22N 43°12' E 030°56'4 9.6
2017-Sep-14 20:58N 43°11' E 030°51'4 9.6
2017-Sep-14 20:30N 43°09' E 030°45'5 9.7
2017-Sep-14 20:00N 43°08' E 030°39'5 9.7
2017-Sep-14 19:30N 43°06' E 030°33'5 9.7
2017-Sep-14 19:00N 43°05' E 030°26'5 9.8
2017-Sep-14 18:30N 43°03' E 030°20'5 9.8
2017-Sep-14 18:00N 43°02' E 030°14'5 9.8
2017-Sep-14 17:30N 43°00' E 030°07'5 9.7
2017-Sep-14 17:00N 42°59' E 030°01'5 9.7
2017-Sep-14 16:30N 42°57' E 029°55'5 9.6
2017-Sep-14 16:00N 42°56' E 029°49'5 9.5
2017-Sep-14 15:30N 42°54' E 029°43'5 9.4
2017-Sep-14 15:00N 42°53' E 029°36'5 9.3
2017-Sep-14 14:30N 42°51' E 029°31'5 9.3
2017-Sep-14 14:00N 42°50' E 029°24'5 9.3
2017-Sep-14 13:30N 42°48' E 029°19'5 9.2
2017-Sep-14 13:00N 42°46' E 029°13'5 9.3
2017-Sep-14 12:30N 42°45' E 029°07'5 9.3
2017-Sep-14 11:58N 42°43' E 029°00'  

Dump ship's entire track history